Time;durP1;ratioP1;P1;durP2;ratioP2;P2;SDS_P1;SDS_P2;PMS_P1;PMS_P2;Temp;Humidity;BMP_temperature;BMP_pressure;BME280_temperature;BME280_humidity;BME280_pressure;Samples;Min_cycle;Max_cycle;Signal;HPM_P1;HPM_P2
2022/05/02 00:01:28;;;;;;;1.20;0.52;;;;;;;23.70;61.18;101960.66;5034431;28;20045;-66
2022/05/02 00:03:54;;;;;;;1.98;0.60;;;;;;;23.68;61.12;101957.19;5034535;28;20071;-66
2022/05/02 00:06:19;;;;;;;1.50;0.40;;;;;;;23.68;61.01;101955.34;5016206;28;20112;-66
2022/05/02 00:08:44;;;;;;;1.50;0.35;;;;;;;23.68;60.75;101952.59;5016630;28;20120;-66
2022/05/02 00:11:10;;;;;;;1.30;0.55;;;;;;;23.67;60.63;101950.84;5034369;28;20437;-66
2022/05/02 00:13:35;;;;;;;3.10;0.77;;;;;;;23.67;60.89;101948.09;5035374;28;20334;-67
2022/05/02 00:16:00;;;;;;;1.02;0.40;;;;;;;23.66;61.25;101949.16;5034438;28;20021;-66
2022/05/02 00:18:28;;;;;;;1.60;0.43;;;;;;;23.64;60.67;101942.97;5034075;28;20427;-66
2022/05/02 00:20:53;;;;;;;2.33;0.40;;;;;;;23.65;61.36;101941.94;5034297;28;20385;-66
2022/05/02 00:23:18;;;;;;;2.35;0.30;;;;;;;23.64;61.40;101939.38;5035951;28;20456;-64
2022/05/02 00:25:44;;;;;;;0.90;0.40;;;;;;;23.68;60.84;101938.88;5037661;28;20053;-66
2022/05/02 00:28:13;;;;;;;1.45;0.55;;;;;;;23.67;61.69;101933.53;5034069;28;20025;-66
2022/05/02 00:30:39;;;;;;;1.80;0.30;;;;;;;23.63;60.80;101932.19;5033963;28;20068;-66
2022/05/02 00:33:04;;;;;;;3.22;0.30;;;;;;;23.62;61.21;101931.34;5034058;28;20120;-67
2022/05/02 00:35:30;;;;;;;0.82;0.30;;;;;;;23.62;60.67;101931.34;5033738;28;20103;-66
2022/05/02 00:37:55;;;;;;;3.28;0.68;;;;;;;23.64;61.17;101923.75;5016014;28;20037;-67
2022/05/02 00:40:21;;;;;;;0.93;0.47;;;;;;;23.63;60.94;101922.06;5033705;28;20048;-67
2022/05/02 00:42:47;;;;;;;4.63;0.60;;;;;;;23.59;60.93;101915.22;5033861;28;20037;-66
2022/05/02 00:45:15;;;;;;;2.67;0.60;;;;;;;23.61;61.04;101917.78;5033623;28;20033;-66
2022/05/02 00:47:40;;;;;;;1.73;0.40;;;;;;;23.59;61.20;101907.00;5034189;28;20048;-66
2022/05/02 00:50:08;;;;;;;2.75;0.55;;;;;;;23.61;60.91;101909.56;5033713;28;20110;-66
2022/05/02 00:52:34;;;;;;;1.23;0.40;;;;;;;23.60;60.80;101905.09;5033497;28;20033;-67
2022/05/02 00:55:02;;;;;;;0.85;0.32;;;;;;;23.60;60.73;101910.59;5033614;28;20033;-66
2022/05/02 00:57:28;;;;;;;1.70;0.30;;;;;;;23.57;61.21;101903.56;5033330;28;20053;-66
2022/05/02 00:59:53;;;;;;;2.17;0.50;;;;;;;23.57;61.66;101906.31;5033350;28;20073;-66
2022/05/02 01:02:19;;;;;;;1.45;0.45;;;;;;;23.56;60.99;101899.09;5033271;28;20112;-66
2022/05/02 01:04:45;;;;;;;0.45;0.30;;;;;;;23.58;60.69;101891.56;5033325;28;20021;-66
2022/05/02 01:07:11;;;;;;;0.65;0.40;;;;;;;23.58;60.72;101890.72;5033310;28;20036;-67
2022/05/02 01:09:42;;;;;;;1.42;0.50;;;;;;;23.55;61.28;101886.41;5015552;28;20031;-65
2022/05/02 01:12:15;;;;;;;1.73;0.40;;;;;;;23.53;60.83;101883.00;5034085;28;20389;-66
2022/05/02 01:14:42;;;;;;;0.57;0.30;;;;;;;23.52;61.12;101881.28;5033058;28;20030;-66
2022/05/02 01:17:08;;;;;;;1.17;0.43;;;;;;;23.56;60.92;101871.66;5032580;28;20031;-66
2022/05/02 01:19:34;;;;;;;0.85;0.40;;;;;;;23.53;61.15;101866.53;5033031;28;20314;-66
2022/05/02 01:21:59;;;;;;;2.30;1.20;;;;;;;23.54;60.59;101868.22;5034316;28;20159;-66
2022/05/02 01:24:33;;;;;;;0.93;0.25;;;;;;;23.53;61.21;101855.53;5015151;28;20076;-66
2022/05/02 01:26:58;;;;;;;0.68;0.25;;;;;;;23.56;61.45;101865.31;5015264;28;20060;-66
2022/05/02 01:29:24;;;;;;;1.65;0.57;;;;;;;23.54;60.70;101861.88;5032845;28;20056;-66
2022/05/02 01:31:49;;;;;;;2.05;0.40;;;;;;;23.51;60.83;101852.09;5032965;28;20369;-66
2022/05/02 01:34:14;;;;;;;1.85;0.57;;;;;;;23.52;60.92;101855.72;5032801;28;20057;-67
2022/05/02 01:36:41;;;;;;;2.25;0.82;;;;;;;23.50;60.62;101839.41;5032687;28;20033;-66
2022/05/02 01:39:07;;;;;;;1.15;0.68;;;;;;;23.51;61.05;101835.63;5032907;28;20100;-66
2022/05/02 01:41:32;;;;;;;1.30;0.35;;;;;;;23.53;60.92;101843.72;5032898;28;20112;-66
2022/05/02 01:43:57;;;;;;;1.27;0.50;;;;;;;23.54;60.72;101840.78;5032790;28;20036;-66
2022/05/02 01:46:23;;;;;;;4.72;0.73;;;;;;;23.52;60.79;101842.00;5032431;28;20416;-66
2022/05/02 01:48:48;;;;;;;1.05;0.35;;;;;;;23.52;61.09;101831.88;5032697;28;20416;-66
2022/05/02 01:51:13;;;;;;;1.08;0.40;;;;;;;23.51;60.57;101823.78;5032646;28;20034;-66
2022/05/02 01:53:38;;;;;;;1.23;0.57;;;;;;;23.51;60.83;101827.41;5032496;28;20025;-66
2022/05/02 01:56:04;;;;;;;2.45;0.77;;;;;;;23.51;60.46;101818.31;5032708;28;20040;-66
2022/05/02 01:58:29;;;;;;;3.35;0.40;;;;;;;23.48;61.17;101814.03;5033138;28;20060;-65
2022/05/02 02:00:55;;;;;;;0.75;0.30;;;;;;;23.49;60.87;101804.78;5034228;28;20099;-66
2022/05/02 02:03:20;;;;;;;0.32;0.30;;;;;;;23.50;61.37;101798.25;5032282;28;20029;-66
2022/05/02 02:05:48;;;;;;;1.77;0.80;;;;;;;23.53;60.84;101802.53;5032330;28;20029;-66
2022/05/02 02:08:14;;;;;;;1.75;0.60;;;;;;;23.47;60.62;101793.13;5014680;28;20083;-67
2022/05/02 02:10:40;;;;;;;0.88;0.60;;;;;;;23.47;61.17;101790.38;5032567;28;20059;-67
2022/05/02 02:13:05;;;;;;;1.15;0.40;;;;;;;23.46;61.26;101783.19;5032562;28;20018;-66
2022/05/02 02:15:31;;;;;;;1.80;0.70;;;;;;;23.48;60.67;101788.50;5014561;28;20049;-66
2022/05/02 02:17:56;;;;;;;0.47;0.30;;;;;;;23.48;61.12;101783.84;5032473;28;20038;-66
2022/05/02 02:20:22;;;;;;;1.15;0.32;;;;;;;23.46;60.83;101777.69;5014369;28;20451;-66
2022/05/02 02:22:47;;;;;;;1.10;0.30;;;;;;;23.45;61.56;101769.66;5032347;28;20025;-66
2022/05/02 02:25:13;;;;;;;1.45;0.28;;;;;;;23.43;60.80;101772.59;5032171;28;20642;-66
2022/05/02 02:27:38;;;;;;;3.13;0.40;;;;;;;23.45;61.22;101765.00;5032676;28;20033;-67
2022/05/02 02:30:04;;;;;;;0.75;0.25;;;;;;;23.45;61.29;101756.78;5036400;28;20095;-66
2022/05/02 02:32:29;;;;;;;0.63;0.30;;;;;;;23.45;61.26;101765.00;5036157;28;20093;-66
2022/05/02 02:34:54;;;;;;;3.70;0.50;;;;;;;23.46;61.13;101763.97;5037618;28;20428;-66
2022/05/02 02:37:20;;;;;;;2.28;0.35;;;;;;;23.44;61.18;101752.34;5035981;28;20063;-66
2022/05/02 02:39:45;;;;;;;1.10;0.35;;;;;;;23.45;61.11;101754.03;5036179;28;20407;-66
2022/05/02 02:42:11;;;;;;;0.47;0.40;;;;;;;23.43;61.49;101745.13;5036143;28;20033;-66
2022/05/02 02:44:36;;;;;;;0.68;0.35;;;;;;;23.43;60.94;101745.13;5039762;28;20033;-66
2022/05/02 02:47:02;;;;;;;1.70;0.30;;;;;;;23.43;61.36;101739.66;5035951;28;20029;-66
2022/05/02 02:49:27;;;;;;;2.47;0.45;;;;;;;23.41;61.63;101736.25;5035782;28;20052;-66
2022/05/02 02:51:53;;;;;;;1.42;0.30;;;;;;;23.43;61.58;101739.66;5036252;28;20112;-66
2022/05/02 02:54:18;;;;;;;0.77;0.38;;;;;;;23.44;61.44;101732.28;5017977;28;20056;-66
2022/05/02 02:56:44;;;;;;;1.10;0.40;;;;;;;23.43;61.21;101725.94;5035810;28;20029;-66
2022/05/02 02:59:10;;;;;;;1.42;0.40;;;;;;;23.44;61.60;101724.88;5035680;28;20029;-66
2022/05/02 03:01:35;;;;;;;0.55;0.22;;;;;;;23.41;61.92;101653.91;5035739;28;20022;-66
2022/05/02 03:06:01;;;;;;;2.78;0.50;;;;;;;23.44;62.14;101659.03;5035700;28;20044;-66
2022/05/02 03:06:46;;;;;;;1.58;0.65;;;;;;;23.46;62.36;101640.47;5035682;28;20041;-66
2022/05/02 03:09:11;;;;;;;2.95;0.40;;;;;;;23.49;63.16;101749.03;5035567;28;20036;-66
2022/05/02 03:11:37;;;;;;;0.82;0.35;;;;;;;23.45;62.47;101715.63;5035444;28;20412;-66
2022/05/02 03:14:02;;;;;;;2.08;0.38;;;;;;;23.44;62.34;101719.41;5035532;28;20027;-66
2022/05/02 03:16:27;;;;;;;0.85;0.60;;;;;;;23.43;62.50;101712.22;5035310;28;20037;-66
2022/05/02 03:18:53;;;;;;;0.68;0.30;;;;;;;23.41;61.96;101720.63;5035470;28;20029;-66
2022/05/02 03:21:18;;;;;;;0.88;0.60;;;;;;;23.43;61.86;101714.94;5035255;28;20025;-66
2022/05/02 03:23:43;;;;;;;1.60;0.60;;;;;;;23.39;62.36;101684.28;5035321;28;20025;-66
2022/05/02 03:26:08;;;;;;;1.15;0.65;;;;;;;23.44;62.54;101680.13;5035292;28;20420;-66
2022/05/02 03:28:34;;;;;;;2.80;0.40;;;;;;;23.44;62.25;101691.97;5038300;28;20480;-66
2022/05/02 03:30:59;;;;;;;1.35;0.28;;;;;;;23.43;62.95;101679.28;5036030;28;20030;-66
2022/05/02 03:33:24;;;;;;;1.60;0.30;;;;;;;23.46;63.63;101667.94;5035132;28;20473;-66
2022/05/02 03:35:50;;;;;;;1.13;0.40;;;;;;;23.46;63.32;101667.06;5035134;28;20021;-66
2022/05/02 03:38:15;;;;;;;2.80;0.68;;;;;;;23.47;63.33;101666.88;5034969;28;20025;-66
2022/05/02 03:40:40;;;;;;;0.50;0.20;;;;;;;23.49;64.30;101666.69;5016665;28;20026;-65
2022/05/02 03:43:06;;;;;;;0.60;0.20;;;;;;;23.49;64.54;101659.31;5037177;28;20029;-66
2022/05/02 03:45:31;;;;;;;1.17;0.38;;;;;;;23.50;64.53;101658.28;5035049;28;20620;-66
2022/05/02 03:47:56;;;;;;;1.77;0.38;;;;;;;23.45;64.80;101652.50;5034963;28;20032;-66
2022/05/02 03:50:22;;;;;;;2.90;0.70;;;;;;;23.49;65.06;101645.59;5034579;28;20072;-66
2022/05/02 03:52:47;;;;;;;0.95;0.20;;;;;;;23.49;64.72;101637.34;5034790;28;20044;-66
2022/05/02 03:55:12;;;;;;;1.00;0.30;;;;;;;23.50;64.72;101636.31;5034692;28;20067;-66
2022/05/02 03:57:38;;;;;;;2.20;0.40;;;;;;;23.49;64.97;101628.28;5034542;28;20018;-66
2022/05/02 04:00:04;;;;;;;1.35;0.40;;;;;;;23.50;64.82;101625.34;5034560;28;20045;-66
2022/05/02 04:02:29;;;;;;;1.50;0.35;;;;;;;23.60;66.33;101587.53;5034462;28;20480;-66
2022/05/02 04:04:54;;;;;;;0.43;0.28;;;;;;;23.63;66.03;101620.09;5016818;28;20457;-66
2022/05/02 04:07:19;;;;;;;1.33;0.28;;;;;;;23.74;65.63;101615.19;5034377;28;20025;-66
2022/05/02 04:09:45;;;;;;;1.08;0.10;;;;;;;23.76;65.63;101626.84;5034551;28;20031;-66
2022/05/02 04:12:10;;;;;;;0.80;0.20;;;;;;;23.81;65.23;101629.84;5034457;28;20403;-66
2022/05/02 04:14:36;;;;;;;0.93;0.22;;;;;;;23.82;65.48;101631.56;5035923;28;20029;-64
2022/05/02 04:17:01;;;;;;;0.43;0.17;;;;;;;23.82;65.43;101613.19;5039041;28;20377;-65
2022/05/02 04:19:26;;;;;;;0.43;0.20;;;;;;;23.86;64.75;101597.22;5035842;28;20025;-66
2022/05/02 04:21:51;;;;;;;0.20;0.10;;;;;;;23.89;65.79;101603.16;5034272;28;20025;-66
2022/05/02 04:24:17;;;;;;;2.33;0.63;;;;;;;23.89;65.64;101597.69;5034139;28;20028;-66
2022/05/02 04:26:42;;;;;;;2.20;0.32;;;;;;;23.93;66.01;101588.00;5034128;28;20096;-66
2022/05/02 04:29:08;;;;;;;1.17;0.20;;;;;;;23.95;65.59;101582.31;5034133;28;20384;-66
2022/05/02 04:31:33;;;;;;;0.28;0.20;;;;;;;23.96;66.54;101571.16;5016218;28;20351;-65
2022/05/02 04:33:58;;;;;;;1.75;0.20;;;;;;;23.98;66.06;101570.94;5016195;28;20388;-66
2022/05/02 04:36:23;;;;;;;0.50;0.30;;;;;;;23.99;66.69;101567.16;5033909;28;20022;-66
2022/05/02 04:38:49;;;;;;;0.43;0.10;;;;;;;24.00;66.78;101566.13;5033784;28;20037;-66
2022/05/02 04:41:14;;;;;;;0.50;0.10;;;;;;;24.02;66.84;101561.31;5033900;28;20022;-66
2022/05/02 04:43:41;;;;;;;0.73;0.30;;;;;;;24.02;66.40;101561.31;5034006;28;20053;-66
2022/05/02 04:46:09;;;;;;;0.20;0.20;;;;;;;24.04;66.86;101559.22;5033800;28;20424;-66
2022/05/02 04:48:35;;;;;;;0.98;0.28;;;;;;;24.07;66.66;101556.09;5033684;28;20021;-66
2022/05/02 04:51:00;;;;;;;1.17;0.25;;;;;;;24.07;67.50;101556.09;5033096;28;20022;-66
2022/05/02 04:53:25;;;;;;;0.57;0.20;;;;;;;24.08;67.23;101557.78;5033088;28;20043;-66
2022/05/02 04:55:50;;;;;;;0.68;0.20;;;;;;;24.14;67.30;101550.66;5033620;28;20511;-66
2022/05/02 04:58:16;;;;;;;0.40;0.20;;;;;;;24.08;67.21;101549.53;5037079;28;20028;-64
2022/05/02 05:00:42;;;;;;;0.30;0.20;;;;;;;24.10;67.97;101547.47;5036439;28;20064;-66
2022/05/02 05:03:07;;;;;;;0.95;0.20;;;;;;;24.14;67.35;101534.19;5033551;28;20032;-66
2022/05/02 05:05:32;;;;;;;0.68;0.30;;;;;;;24.16;67.99;101543.94;5033214;28;20021;-66
2022/05/02 05:07:58;;;;;;;0.45;0.20;;;;;;;24.17;67.50;101539.28;5033379;28;20029;-66
2022/05/02 05:10:23;;;;;;;0.45;0.20;;;;;;;24.15;67.38;101519.41;5033111;28;20029;-66
2022/05/02 05:13:01;;;;;;;0.30;0.20;;;;;;;24.13;67.82;101516.84;5033337;28;20037;-66
2022/05/02 05:18:41;;;;;;;0.32;0.20;;;;;;;24.18;67.54;101508.88;5033057;28;20036;-66
2022/05/02 05:21:24;;;;;;;0.60;0.40;;;;;;;24.20;67.72;101490.31;5033252;28;20091;-66
2022/05/02 05:24:23;;;;;;;2.25;0.30;;;;;;;24.22;67.70;101493.72;5033164;28;20037;-66
2022/05/02 05:27:11;;;;;;;0.30;0.20;;;;;;;24.24;67.82;101480.63;5032949;28;20492;-66
2022/05/02 05:29:50;;;;;;;0.35;0.30;;;;;;;24.22;67.89;101477.22;5033040;28;20025;-66
2022/05/02 05:32:27;;;;;;;0.75;0.22;;;;;;;24.20;67.61;101468.34;5033494;28;20374;-66
2022/05/02 05:35:05;;;;;;;0.40;0.20;;;;;;;24.23;68.45;101467.94;5032882;28;20112;-65
2022/05/02 05:37:39;;;;;;;0.88;0.30;;;;;;;24.23;67.91;101458.84;5033033;28;20025;-66
2022/05/02 05:40:29;;;;;;;0.47;0.30;;;;;;;24.25;67.63;101449.38;5032944;28;20377;-66
2022/05/02 05:43:01;;;;;;;1.48;0.20;;;;;;;24.26;67.69;101445.56;5032864;28;20044;-66
2022/05/02 05:45:56;;;;;;;0.22;0.20;;;;;;;24.28;68.17;101442.63;5032544;28;20492;-66
2022/05/02 05:48:43;;;;;;;1.70;0.20;;;;;;;24.26;68.43;101434.56;5032519;28;20029;-66
2022/05/02 05:51:17;;;;;;;0.40;0.20;;;;;;;24.23;65.55;101440.47;5030379;28;20013;-68
2022/05/02 05:54:05;;;;;;;0.10;0.03;;;;;;;23.82;59.03;101453.09;5030102;28;20420;-66
2022/05/02 05:56:56;;;;;;;0.20;0.10;;;;;;;23.72;54.06;101447.06;5031700;28;20108;-66
2022/05/02 05:59:28;;;;;;;0.10;0.10;;;;;;;23.75;55.18;101430.22;5032199;28;20071;-66
2022/05/02 06:01:59;;;;;;;0.45;0.17;;;;;;;23.69;52.77;101438.19;5031430;28;20053;-67
2022/05/02 06:04:27;;;;;;;0.75;0.15;;;;;;;23.94;58.33;101424.94;5031130;28;20033;-67
2022/05/02 06:06:54;;;;;;;1.20;0.20;;;;;;;24.04;60.25;101430.13;5032653;28;20116;-66
2022/05/02 06:09:20;;;;;;;1.55;0.47;;;;;;;24.05;61.44;101418.09;5030229;28;20048;-67
2022/05/02 06:11:47;;;;;;;0.40;0.20;;;;;;;24.10;62.88;101406.50;5032454;28;20053;-67
2022/05/02 06:14:14;;;;;;;0.50;0.30;;;;;;;24.13;63.22;101406.97;5032405;28;20098;-67
2022/05/02 06:19:27;;;;;;;0.40;0.20;;;;;;;24.17;64.68;101402.78;5032221;28;20051;-67
2022/05/02 06:21:54;;;;;;;1.27;0.32;;;;;;;24.23;65.29;101396.50;5032376;28;20021;-67
2022/05/02 06:24:25;;;;;;;2.05;0.20;;;;;;;24.24;65.34;101395.47;5032225;28;20109;-67
2022/05/02 06:26:52;;;;;;;1.13;0.40;;;;;;;24.23;66.07;101391.00;5032213;28;20568;-67
2022/05/02 06:29:18;;;;;;;1.42;0.40;;;;;;;24.27;65.96;101378.56;5032207;28;20029;-67
2022/05/02 06:31:44;;;;;;;0.40;0.20;;;;;;;24.28;66.67;101379.41;5032280;28;20452;-67
2022/05/02 06:34:10;;;;;;;0.40;0.20;;;;;;;24.30;67.19;101378.22;5014602;28;20032;-67
2022/05/02 06:36:47;;;;;;;0.43;0.30;;;;;;;24.31;66.34;101373.56;5033131;28;20029;-67
2022/05/02 06:39:35;;;;;;;1.80;0.60;;;;;;;24.33;66.93;101367.88;5039207;28;20028;-64
2022/05/02 06:42:10;;;;;;;1.17;0.45;;;;;;;24.34;67.13;101364.06;5038248;28;20469;-67
2022/05/02 06:45:12;;;;;;;2.08;0.57;;;;;;;24.36;67.24;101364.75;5032095;28;20033;-67
2022/05/02 06:48:08;;;;;;;1.10;0.40;;;;;;;24.30;66.95;101361.72;5032058;28;20033;-68
2022/05/02 06:50:37;;;;;;;2.15;0.70;;;;;;;24.32;67.43;101355.19;5032032;28;20478;-67
2022/05/02 06:53:24;;;;;;;3.22;0.70;;;;;;;24.33;67.61;101351.38;5032158;28;20026;-66
2022/05/02 06:55:56;;;;;;;3.70;0.90;;;;;;;24.34;67.48;101342.09;5014603;28;20053;-67
2022/05/02 06:58:31;;;;;;;2.95;0.68;;;;;;;24.37;67.39;101336.22;5031793;28;20025;-67
2022/05/02 07:01:08;;;;;;;3.28;1.25;;;;;;;24.36;68.41;101334.50;5031775;28;20064;-67
2022/05/02 07:03:51;;;;;;;2.00;0.85;;;;;;;24.37;68.01;101331.56;5032218;28;20030;-67
2022/05/02 07:06:37;;;;;;;3.78;0.93;;;;;;;24.38;67.87;101322.28;5031697;28;20061;-67
2022/05/02 07:09:04;;;;;;;2.72;1.13;;;;;;;24.38;68.54;101327.78;5033261;28;20025;-67
2022/05/02 07:11:48;;;;;;;4.10;1.83;;;;;;;24.41;67.59;101315.53;5031715;28;20026;-67
2022/05/02 07:14:25;;;;;;;1.27;0.77;;;;;;;24.39;68.19;101312.13;5031862;28;20024;-67
2022/05/02 07:16:56;;;;;;;1.90;0.75;;;;;;;24.41;67.68;101305.38;5035524;28;20021;-67
2022/05/02 07:19:36;;;;;;;2.15;0.98;;;;;;;24.41;68.09;101294.38;5035785;28;20017;-67
2022/05/02 07:22:04;;;;;;;2.58;0.82;;;;;;;24.42;68.25;101295.22;5040229;28;20025;-66
2022/05/02 07:25:07;;;;;;;2.05;0.80;;;;;;;24.44;68.74;101288.47;5035099;28;20037;-67
2022/05/02 07:27:52;;;;;;;3.40;0.80;;;;;;;24.44;68.31;101287.63;5035150;28;20053;-67
2022/05/02 07:30:21;;;;;;;2.50;0.70;;;;;;;24.44;68.63;101276.63;5035090;28;20029;-67
2022/05/02 07:32:46;;;;;;;1.23;0.80;;;;;;;24.41;68.93;101277.06;5035219;28;20277;-67
2022/05/02 07:35:14;;;;;;;4.05;0.80;;;;;;;24.42;67.94;101270.50;5035039;28;20025;-67
2022/05/02 07:37:42;;;;;;;1.08;0.43;;;;;;;24.46;68.45;101269.03;5035394;28;20072;-66
2022/05/02 07:40:11;;;;;;;1.55;0.75;;;;;;;24.43;68.91;101259.31;5035926;28;20056;-67
2022/05/02 07:42:37;;;;;;;1.73;0.73;;;;;;;24.46;68.72;101252.56;5034924;28;20063;-67
2022/05/02 07:45:03;;;;;;;2.08;0.80;;;;;;;24.42;68.47;101246.63;5034919;28;20045;-67
2022/05/02 07:47:32;;;;;;;1.08;0.73;;;;;;;24.44;68.13;101247.25;5034670;28;20064;-67
2022/05/02 07:49:58;;;;;;;2.28;0.57;;;;;;;24.45;68.18;101235.22;5034834;28;20029;-67
2022/05/02 07:52:26;;;;;;;0.90;0.55;;;;;;;24.46;69.09;101236.06;5034675;28;20021;-67
2022/05/02 07:54:55;;;;;;;1.60;0.43;;;;;;;24.45;68.23;101231.63;5034821;28;20021;-67
2022/05/02 07:57:21;;;;;;;1.15;0.70;;;;;;;24.48;68.12;101229.31;5034603;28;20037;-67
2022/05/02 07:59:51;;;;;;;1.02;0.45;;;;;;;24.46;68.20;101222.31;5034638;28;20053;-67
2022/05/02 08:02:18;;;;;;;0.82;0.28;;;;;;;24.46;68.35;101219.56;5016763;28;20021;-66
2022/05/02 08:04:44;;;;;;;1.27;0.50;;;;;;;24.46;68.49;101220.41;5037855;28;20492;-67
2022/05/02 08:07:12;;;;;;;3.58;0.45;;;;;;;24.46;68.90;101214.94;5034402;28;20083;-67
2022/05/02 08:09:58;;;;;;;1.00;0.40;;;;;;;24.48;69.03;101209.22;5034427;28;20021;-67
2022/05/02 08:12:33;;;;;;;0.75;0.40;;;;;;;24.48;68.78;101196.31;5035240;28;20021;-66
2022/05/02 08:15:21;;;;;;;0.65;0.50;;;;;;;24.50;68.56;101193.38;5035195;28;20050;-67
2022/05/02 08:17:52;;;;;;;0.55;0.20;;;;;;;24.51;68.23;101195.06;5034339;28;20029;-66
2022/05/02 08:20:42;;;;;;;0.60;0.32;;;;;;;24.48;68.89;101190.81;5034242;28;20103;-67
2022/05/02 08:30:08;;;;;;;1.42;0.20;;;;;;;24.49;68.04;101183.44;5033926;28;20392;-67
2022/05/02 08:32:59;;;;;;;2.50;0.68;;;;;;;24.47;68.12;101171.81;5016169;28;20483;-67
2022/05/02 08:35:57;;;;;;;0.35;0.20;;;;;;;24.52;68.44;101170.16;5033805;28;20088;-67
2022/05/02 08:38:37;;;;;;;0.30;0.30;;;;;;;24.54;68.78;101162.56;5033803;28;20021;-67
2022/05/02 08:41:08;;;;;;;0.70;0.30;;;;;;;24.49;69.15;101158.69;5034035;28;20416;-66
2022/05/02 08:43:48;;;;;;;1.27;0.45;;;;;;;24.52;68.23;101163.78;5040209;28;20044;-67
2022/05/02 08:46:44;;;;;;;0.52;0.20;;;;;;;24.52;68.87;101152.78;5031775;28;20465;-67
2022/05/02 08:49:37;;;;;;;1.95;0.52;;;;;;;24.55;68.78;101146.91;5022855;28;20124;-67
2022/05/02 08:52:26;;;;;;;1.23;0.28;;;;;;;24.52;68.88;101133.53;5022022;28;20096;-67
2022/05/02 08:55:19;;;;;;;1.05;0.30;;;;;;;24.57;69.15;101120.91;5022624;28;20025;-66
2022/05/02 08:57:56;;;;;;;1.13;0.45;;;;;;;24.56;67.84;101123.88;5025179;28;20029;-68
2022/05/02 09:00:40;;;;;;;1.40;0.40;;;;;;;24.51;68.03;101129.09;5025156;28;20057;-65
2022/05/02 09:03:27;;;;;;;1.65;0.45;;;;;;;24.49;68.03;101117.47;5020377;28;20036;-66
2022/05/02 09:06:13;;;;;;;1.00;0.50;;;;;;;24.44;67.98;101089.78;5028104;28;20497;-66
2022/05/02 09:09:11;;;;;;;1.20;0.47;;;;;;;24.49;69.21;101088.09;5019227;28;20280;-66
2022/05/02 09:11:58;;;;;;;1.17;0.25;;;;;;;24.03;59.34;101109.84;5006316;28;20123;-66
2022/05/02 09:14:26;;;;;;;0.98;0.22;;;;;;;24.24;62.82;101096.00;5022851;28;20021;-66
2022/05/02 09:17:05;;;;;;;1.42;0.43;;;;;;;24.33;65.05;101088.44;5025329;28;20408;-67
2022/05/02 09:20:01;;;;;;;1.15;0.60;;;;;;;24.38;66.06;101093.34;5027914;28;20536;-66
2022/05/02 09:22:45;;;;;;;0.47;0.40;;;;;;;24.35;66.41;101085.50;5046570;28;20025;-62
2022/05/02 09:25:11;;;;;;;0.60;0.32;;;;;;;24.40;66.63;101081.09;4999800;28;20025;-66
2022/05/02 09:27:54;;;;;;;1.10;0.40;;;;;;;24.38;67.20;101069.47;5025122;28;20026;-65
2022/05/02 09:31:01;;;;;;;0.95;0.55;;;;;;;24.39;67.25;101070.31;5042497;28;20024;-66
2022/05/02 09:33:31;;;;;;;0.77;0.32;;;;;;;24.43;66.96;101049.59;5028384;28;20376;-66
2022/05/02 09:36:04;;;;;;;0.30;0.25;;;;;;;24.41;67.24;101062.72;5031317;28;20017;-66
2022/05/02 09:39:13;;;;;;;0.55;0.30;;;;;;;24.43;66.86;101060.59;5018603;28;20030;-66
2022/05/02 09:42:06;;;;;;;0.35;0.30;;;;;;;24.42;67.56;101039.66;4980594;28;20038;-66
2022/05/02 09:51:30;;;;;;;1.10;0.40;;;;;;;24.38;67.00;101010.91;4942276;29;20066;-66
2022/05/02 09:57:22;;;;;;;0.73;0.35;;;;;;;24.37;65.55;101017.47;4940917;29;20047;-66
2022/05/02 10:01:06;;;;;;;1.65;0.40;;;;;;;24.37;66.24;101021.06;4949538;29;20113;-66
2022/05/02 10:02:45;;;;;;;1.77;0.30;;;;;;;24.36;66.38;101007.53;4950391;29;20184;-66
2022/05/02 10:05:29;;;;;;;0.70;0.20;;;;;;;24.36;65.72;101011.13;4950709;29;20056;-66
2022/05/02 10:08:22;;;;;;;0.38;0.10;;;;;;;24.36;65.67;101007.53;4934803;29;20123;-66
2022/05/02 10:10:59;;;;;;;0.75;0.30;;;;;;;24.37;65.98;101001.00;4950717;29;20621;-66
2022/05/02 10:13:37;;;;;;;0.43;0.17;;;;;;;24.38;65.73;100975.19;4940157;29;20043;-66
2022/05/02 10:16:27;;;;;;;2.65;0.43;;;;;;;24.37;65.65;100996.34;4943431;28;20046;-66
2022/05/02 10:19:29;;;;;;;1.55;0.28;;;;;;;24.35;65.96;100987.44;4971276;28;20046;-66
2022/05/02 10:22:23;;;;;;;1.42;0.20;;;;;;;24.38;66.08;100977.94;4971251;28;20114;-66
2022/05/02 10:25:12;;;;;;;1.60;0.30;;;;;;;24.37;65.46;100965.28;4978830;28;20038;-66
2022/05/02 10:27:41;;;;;;;0.73;0.13;;;;;;;24.38;66.04;100969.72;5007706;28;20466;-66
2022/05/02 10:30:08;;;;;;;0.20;0.20;;;;;;;24.38;66.08;100965.06;4997627;28;20017;-66
2022/05/02 10:32:48;;;;;;;1.10;0.40;;;;;;;24.35;65.38;100970.09;5005892;28;20064;-66
2022/05/02 10:35:15;;;;;;;2.55;0.30;;;;;;;24.35;65.82;100964.59;5012758;28;20157;-66
2022/05/02 10:37:54;;;;;;;0.40;0.20;;;;;;;24.36;65.66;100963.56;5012374;28;20101;-66
2022/05/02 10:40:37;;;;;;;1.38;0.40;;;;;;;24.37;65.88;100946.03;5012423;28;20026;-66
2022/05/02 10:43:05;;;;;;;0.75;0.20;;;;;;;24.39;66.30;100950.25;5012500;28;20025;-66
2022/05/02 10:45:36;;;;;;;2.13;0.35;;;;;;;24.36;65.30;100942.44;5012661;28;20100;-63
2022/05/02 10:48:21;;;;;;;1.42;0.10;;;;;;;24.35;65.60;100940.72;5012909;28;20022;-66
2022/05/02 10:51:03;;;;;;;0.93;0.25;;;;;;;24.33;65.48;100945.56;5014641;28;20083;-66
2022/05/02 10:53:46;;;;;;;3.70;0.68;;;;;;;24.36;65.02;100930.59;5014764;28;20044;-66
2022/05/02 10:56:58;;;;;;;2.53;0.70;;;;;;;24.36;65.30;100927.84;5016130;28;20045;-66
2022/05/02 10:59:27;;;;;;;0.75;0.30;;;;;;;24.37;66.01;100924.06;4967655;28;20070;-66
2022/05/02 11:02:05;;;;;;;1.13;0.38;;;;;;;24.37;65.12;100913.91;4965980;28;20043;-66
2022/05/02 11:05:06;;;;;;;1.90;0.32;;;;;;;24.43;65.09;100909.47;4963132;28;20137;-65
2022/05/02 11:07:45;;;;;;;0.95;0.35;;;;;;;24.45;64.63;100905.44;4962697;28;20055;-67
2022/05/02 11:10:13;;;;;;;0.85;0.25;;;;;;;24.46;66.23;100898.03;4954468;28;20533;-66
2022/05/02 11:12:46;;;;;;;1.80;0.22;;;;;;;24.51;65.68;100895.50;4966869;28;20034;-66
2022/05/02 11:15:23;;;;;;;1.00;0.22;;;;;;;23.95;54.20;100906.81;4959464;28;20038;-62
2022/05/02 11:20:41;;;;;;;0.13;0.13;;;;;;;23.92;53.10;100893.50;4960969;28;20028;-66
2022/05/02 11:21:11;;;;;;;3.80;0.40;;;;;;;24.09;53.85;100881.06;4972739;28;20110;-67
2022/05/02 11:23:58;;;;;;;7.32;0.60;;;;;;;24.07;54.41;100869.44;4967234;28;20051;-68
2022/05/02 11:26:45;;;;;;;0.47;0.10;;;;;;;23.94;51.13;100883.16;4953824;28;20062;-67
2022/05/02 11:29:44;;;;;;;1.17;0.20;;;;;;;24.06;53.82;100873.25;4969786;28;20388;-67
2022/05/02 11:32:23;;;;;;;0.98;0.20;;;;;;;24.00;53.97;100869.41;5013866;28;20017;-66
2022/05/02 11:35:01;;;;;;;2.05;0.47;;;;;;;24.16;53.87;100862.69;5010623;28;20026;-65
2022/05/02 11:37:33;;;;;;;0.43;0.40;;;;;;;24.05;52.83;100865.22;5009885;28;20029;-66
2022/05/02 11:40:07;;;;;;;0.20;0.10;;;;;;;24.07;54.25;100863.97;5011752;28;20116;-69
2022/05/02 11:42:32;;;;;;;;;;;;;;;24.06;53.71;100862.28;5003680;28;20045;-66
2022/05/02 11:45:12;;;;;;;0.35;0.10;;;;;;;24.00;53.58;100863.06;5013970;28;19917;-66
2022/05/02 11:48:03;;;;;;;1.45;0.20;;;;;;;24.03;53.96;100868.19;5013392;28;20117;-66
2022/05/02 11:50:39;;;;;;;2.35;0.22;;;;;;;24.03;53.17;100846.22;5014125;28;20014;-66
2022/05/02 11:53:08;;;;;;;0.30;0.20;;;;;;;24.02;51.44;100844.53;5014779;28;20030;-66
2022/05/02 11:55:34;;;;;;;1.27;0.20;;;;;;;24.05;53.86;100843.25;5013073;28;20116;-66
2022/05/02 11:58:08;;;;;;;0.52;0.22;;;;;;;24.06;52.67;100844.94;5014284;28;20157;-66
2022/05/02 12:00:36;;;;;;;0.30;0.03;;;;;;;24.02;53.22;100839.03;5022639;28;20504;-64
2022/05/02 12:03:15;;;;;;;0.10;0.10;;;;;;;24.03;53.98;100834.38;5024772;28;20021;-66
2022/05/02 12:05:47;;;;;;;1.65;0.45;;;;;;;24.87;53.54;100824.44;5021192;28;20025;-68
2022/05/02 12:08:33;;;;;;;1.60;0.20;;;;;;;23.62;58.17;100833.44;5033015;28;20055;-68
2022/05/02 12:11:12;;;;;;;0.57;0.20;;;;;;;24.03;55.16;100818.75;5032661;28;20033;-70
2022/05/02 12:13:40;;;;;;;1.88;0.20;;;;;;;23.99;54.26;100811.97;5028331;28;20056;-67